Terminal Aerodrome Forecast
Issued by NWS Bismarck, ND

Home | Current Version | Previous Version | Text Only | Print | Product List | Glossary Off
Versions: 1 2 3 4 5 6 7 8 9 10 11 12 13 14 15 16 17 18 19 20 21 22 23 24 25

757
FTUS43 KBIS 111738
TAFISN
TAF
KISN 111738Z 1118/1218 05006KT 2SM -SN BR SCT007 OVC015
     FM112000 02007KT P6SM -SHSN OVC015
     FM112300 01008KT P6SM OVC015
     FM120400 36008KT P6SM OVC040
     FM121200 03008KT P6SM BKN070=

USA.gov is the U.S. government's official web portal to all federal, state and local government web resources and services.